sensor_id;sensor_type;location;lat;lon;timestamp;temperature;humidity
26575;DHT22;67165;50.256;10.978;2023-05-02T00:01:15;6.60;98.00
26575;DHT22;67165;50.256;10.978;2023-05-02T00:03:41;6.60;98.00
26575;DHT22;67165;50.256;10.978;2023-05-02T00:06:08;6.60;98.00
26575;DHT22;67165;50.256;10.978;2023-05-02T00:08:34;6.50;98.00
26575;DHT22;67165;50.256;10.978;2023-05-02T00:11:00;6.50;98.00
26575;DHT22;67165;50.256;10.978;2023-05-02T00:13:25;6.50;98.00
26575;DHT22;67165;50.256;10.978;2023-05-02T00:15:51;6.40;98.00
26575;DHT22;67165;50.256;10.978;2023-05-02T00:18:17;6.40;98.00
26575;DHT22;67165;50.256;10.978;2023-05-02T00:20:42;6.40;98.00
26575;DHT22;67165;50.256;10.978;2023-05-02T00:23:10;6.40;98.00
26575;DHT22;67165;50.256;10.978;2023-05-02T00:25:44;6.40;98.00
26575;DHT22;67165;50.256;10.978;2023-05-02T00:28:10;6.40;98.00
26575;DHT22;67165;50.256;10.978;2023-05-02T00:30:36;6.40;98.00
26575;DHT22;67165;50.256;10.978;2023-05-02T00:33:06;6.40;98.00
26575;DHT22;67165;50.256;10.978;2023-05-02T00:35:32;6.30;98.00
26575;DHT22;67165;50.256;10.978;2023-05-02T00:37:58;6.30;98.00
26575;DHT22;67165;50.256;10.978;2023-05-02T00:40:24;6.30;98.00
26575;DHT22;67165;50.256;10.978;2023-05-02T00:42:50;6.20;98.00
26575;DHT22;67165;50.256;10.978;2023-05-02T00:45:16;6.20;98.00
26575;DHT22;67165;50.256;10.978;2023-05-02T00:47:42;6.20;98.00
26575;DHT22;67165;50.256;10.978;2023-05-02T00:50:08;6.10;98.00
26575;DHT22;67165;50.256;10.978;2023-05-02T00:52:34;6.10;98.00
26575;DHT22;67165;50.256;10.978;2023-05-02T00:55:01;6.10;98.00
26575;DHT22;67165;50.256;10.978;2023-05-02T00:57:28;6.00;98.00
26575;DHT22;67165;50.256;10.978;2023-05-02T00:59:53;6.10;98.00
26575;DHT22;67165;50.256;10.978;2023-05-02T01:02:42;6.00;98.00
26575;DHT22;67165;50.256;10.978;2023-05-02T01:05:40;6.10;98.00
26575;DHT22;67165;50.256;10.978;2023-05-02T01:08:34;6.20;98.00
26575;DHT22;67165;50.256;10.978;2023-05-02T01:11:07;6.20;98.00
26575;DHT22;67165;50.256;10.978;2023-05-02T01:13:37;6.20;98.00
26575;DHT22;67165;50.256;10.978;2023-05-02T01:16:04;6.20;98.00
26575;DHT22;67165;50.256;10.978;2023-05-02T01:18:34;6.30;98.00
26575;DHT22;67165;50.256;10.978;2023-05-02T01:21:06;6.20;98.00
26575;DHT22;67165;50.256;10.978;2023-05-02T01:26:22;6.10;98.00
26575;DHT22;67165;50.256;10.978;2023-05-02T01:29:01;6.10;98.00
26575;DHT22;67165;50.256;10.978;2023-05-02T01:31:34;6.10;98.00
26575;DHT22;67165;50.256;10.978;2023-05-02T01:34:02;6.00;98.00
26575;DHT22;67165;50.256;10.978;2023-05-02T01:36:30;5.90;98.00
26575;DHT22;67165;50.256;10.978;2023-05-02T01:38:58;5.90;98.00
26575;DHT22;67165;50.256;10.978;2023-05-02T01:41:25;5.90;98.00
26575;DHT22;67165;50.256;10.978;2023-05-02T01:43:56;5.90;98.00
26575;DHT22;67165;50.256;10.978;2023-05-02T01:46:33;5.90;98.00
26575;DHT22;67165;50.256;10.978;2023-05-02T01:49:02;5.90;98.00
26575;DHT22;67165;50.256;10.978;2023-05-02T01:51:32;5.90;98.00
26575;DHT22;67165;50.256;10.978;2023-05-02T01:54:01;5.80;98.00
26575;DHT22;67165;50.256;10.978;2023-05-02T01:56:31;5.90;98.00
26575;DHT22;67165;50.256;10.978;2023-05-02T01:58:58;5.90;98.00
26575;DHT22;67165;50.256;10.978;2023-05-02T02:01:25;6.00;98.00
26575;DHT22;67165;50.256;10.978;2023-05-02T02:03:55;6.00;98.00
26575;DHT22;67165;50.256;10.978;2023-05-02T02:06:22;6.00;98.00
26575;DHT22;67165;50.256;10.978;2023-05-02T02:08:48;6.10;98.00
26575;DHT22;67165;50.256;10.978;2023-05-02T02:11:17;6.10;98.00
26575;DHT22;67165;50.256;10.978;2023-05-02T02:13:54;6.10;98.00
26575;DHT22;67165;50.256;10.978;2023-05-02T02:16:27;6.20;98.00
26575;DHT22;67165;50.256;10.978;2023-05-02T02:18:55;6.20;98.00
26575;DHT22;67165;50.256;10.978;2023-05-02T02:21:24;6.20;98.00
26575;DHT22;67165;50.256;10.978;2023-05-02T02:23:53;6.20;98.00
26575;DHT22;67165;50.256;10.978;2023-05-02T02:26:21;6.20;98.00
26575;DHT22;67165;50.256;10.978;2023-05-02T02:28:48;6.20;98.00
26575;DHT22;67165;50.256;10.978;2023-05-02T02:31:13;6.20;98.00
26575;DHT22;67165;50.256;10.978;2023-05-02T02:33:39;6.20;98.00
26575;DHT22;67165;50.256;10.978;2023-05-02T02:36:28;6.20;98.00
26575;DHT22;67165;50.256;10.978;2023-05-02T02:42:08;6.10;98.00
26575;DHT22;67165;50.256;10.978;2023-05-02T02:44:55;6.10;98.00
26575;DHT22;67165;50.256;10.978;2023-05-02T02:56:27;6.00;98.00
26575;DHT22;67165;50.256;10.978;2023-05-02T02:58:45;6.00;98.00
26575;DHT22;67165;50.256;10.978;2023-05-02T03:01:16;6.10;98.00
26575;DHT22;67165;50.256;10.978;2023-05-02T03:03:44;6.00;98.00
26575;DHT22;67165;50.256;10.978;2023-05-02T03:06:11;6.10;98.00
26575;DHT22;67165;50.256;10.978;2023-05-02T03:08:40;6.10;98.00
26575;DHT22;67165;50.256;10.978;2023-05-02T03:11:06;6.10;98.00
26575;DHT22;67165;50.256;10.978;2023-05-02T03:13:33;6.10;98.00
26575;DHT22;67165;50.256;10.978;2023-05-02T03:18:29;6.10;98.00
26575;DHT22;67165;50.256;10.978;2023-05-02T03:20:55;6.10;98.00
26575;DHT22;67165;50.256;10.978;2023-05-02T03:23:21;6.10;98.00
26575;DHT22;67165;50.256;10.978;2023-05-02T03:25:46;6.10;98.00
26575;DHT22;67165;50.256;10.978;2023-05-02T03:28:12;6.10;98.00
26575;DHT22;67165;50.256;10.978;2023-05-02T03:30:38;6.10;98.00
26575;DHT22;67165;50.256;10.978;2023-05-02T03:33:05;6.20;98.00
26575;DHT22;67165;50.256;10.978;2023-05-02T03:35:33;6.20;98.00
26575;DHT22;67165;50.256;10.978;2023-05-02T03:37:58;6.20;98.00
26575;DHT22;67165;50.256;10.978;2023-05-02T03:40:25;6.30;98.00
26575;DHT22;67165;50.256;10.978;2023-05-02T03:42:51;6.30;98.00
26575;DHT22;67165;50.256;10.978;2023-05-02T03:45:17;6.30;98.00
26575;DHT22;67165;50.256;10.978;2023-05-02T03:47:42;6.30;98.00
26575;DHT22;67165;50.256;10.978;2023-05-02T03:50:08;6.30;98.00
26575;DHT22;67165;50.256;10.978;2023-05-02T03:52:34;6.30;98.00
26575;DHT22;67165;50.256;10.978;2023-05-02T03:55:00;6.30;98.00
26575;DHT22;67165;50.256;10.978;2023-05-02T03:57:29;6.40;98.00
26575;DHT22;67165;50.256;10.978;2023-05-02T03:59:55;6.40;98.00
26575;DHT22;67165;50.256;10.978;2023-05-02T04:02:20;6.40;98.00
26575;DHT22;67165;50.256;10.978;2023-05-02T04:04:46;6.40;98.00
26575;DHT22;67165;50.256;10.978;2023-05-02T04:07:11;6.40;98.00
26575;DHT22;67165;50.256;10.978;2023-05-02T04:09:42;6.40;98.00
26575;DHT22;67165;50.256;10.978;2023-05-02T04:12:08;6.50;98.00
26575;DHT22;67165;50.256;10.978;2023-05-02T04:14:34;6.50;98.00
26575;DHT22;67165;50.256;10.978;2023-05-02T04:16:59;6.50;98.00
26575;DHT22;67165;50.256;10.978;2023-05-02T04:19:25;6.50;98.00
26575;DHT22;67165;50.256;10.978;2023-05-02T04:21:51;6.60;98.00
26575;DHT22;67165;50.256;10.978;2023-05-02T04:24:17;6.60;98.00
26575;DHT22;67165;50.256;10.978;2023-05-02T04:26:43;6.60;98.00
26575;DHT22;67165;50.256;10.978;2023-05-02T04:29:10;6.60;98.00
26575;DHT22;67165;50.256;10.978;2023-05-02T04:31:36;6.70;98.00
26575;DHT22;67165;50.256;10.978;2023-05-02T04:34:02;6.70;98.00
26575;DHT22;67165;50.256;10.978;2023-05-02T04:36:28;6.70;98.00
26575;DHT22;67165;50.256;10.978;2023-05-02T04:38:54;6.80;98.00
26575;DHT22;67165;50.256;10.978;2023-05-02T04:41:20;6.80;98.00
26575;DHT22;67165;50.256;10.978;2023-05-02T04:43:46;6.80;98.00
26575;DHT22;67165;50.256;10.978;2023-05-02T04:46:11;6.80;98.00
26575;DHT22;67165;50.256;10.978;2023-05-02T04:48:37;6.90;98.00
26575;DHT22;67165;50.256;10.978;2023-05-02T04:51:07;7.00;98.00
26575;DHT22;67165;50.256;10.978;2023-05-02T04:53:33;7.10;98.00
26575;DHT22;67165;50.256;10.978;2023-05-02T04:55:59;7.10;98.00
26575;DHT22;67165;50.256;10.978;2023-05-02T04:58:25;7.10;98.00
26575;DHT22;67165;50.256;10.978;2023-05-02T05:00:51;7.20;98.00
26575;DHT22;67165;50.256;10.978;2023-05-02T05:03:16;7.20;98.00
26575;DHT22;67165;50.256;10.978;2023-05-02T05:05:42;7.30;98.00
26575;DHT22;67165;50.256;10.978;2023-05-02T05:08:08;7.30;98.00
26575;DHT22;67165;50.256;10.978;2023-05-02T05:10:33;7.30;98.00
26575;DHT22;67165;50.256;10.978;2023-05-02T05:13:00;7.40;98.00
26575;DHT22;67165;50.256;10.978;2023-05-02T05:15:25;7.50;98.00
26575;DHT22;67165;50.256;10.978;2023-05-02T05:17:51;7.50;98.00
26575;DHT22;67165;50.256;10.978;2023-05-02T05:20:17;7.70;98.00
26575;DHT22;67165;50.256;10.978;2023-05-02T05:22:43;7.70;98.00
26575;DHT22;67165;50.256;10.978;2023-05-02T05:25:09;7.80;98.00
26575;DHT22;67165;50.256;10.978;2023-05-02T05:27:35;7.90;98.00
26575;DHT22;67165;50.256;10.978;2023-05-02T05:30:02;7.90;98.00
26575;DHT22;67165;50.256;10.978;2023-05-02T05:32:28;7.90;98.00
26575;DHT22;67165;50.256;10.978;2023-05-02T05:34:54;8.00;98.00
26575;DHT22;67165;50.256;10.978;2023-05-02T05:37:20;8.00;98.00
26575;DHT22;67165;50.256;10.978;2023-05-02T05:39:48;8.00;98.00
26575;DHT22;67165;50.256;10.978;2023-05-02T05:42:16;8.10;98.00
26575;DHT22;67165;50.256;10.978;2023-05-02T05:44:42;8.10;98.00
26575;DHT22;67165;50.256;10.978;2023-05-02T05:47:08;8.00;98.00
26575;DHT22;67165;50.256;10.978;2023-05-02T05:49:33;8.00;98.00
26575;DHT22;67165;50.256;10.978;2023-05-02T05:52:03;8.10;98.00
26575;DHT22;67165;50.256;10.978;2023-05-02T05:54:29;8.10;98.00
26575;DHT22;67165;50.256;10.978;2023-05-02T05:56:55;8.00;98.00
26575;DHT22;67165;50.256;10.978;2023-05-02T05:59:20;8.10;98.00
26575;DHT22;67165;50.256;10.978;2023-05-02T06:01:46;8.10;98.00
26575;DHT22;67165;50.256;10.978;2023-05-02T06:04:12;8.00;98.00
26575;DHT22;67165;50.256;10.978;2023-05-02T06:06:37;8.00;98.00
26575;DHT22;67165;50.256;10.978;2023-05-02T06:09:03;8.00;98.00
26575;DHT22;67165;50.256;10.978;2023-05-02T06:11:31;7.90;98.00
26575;DHT22;67165;50.256;10.978;2023-05-02T06:13:57;7.90;98.00
26575;DHT22;67165;50.256;10.978;2023-05-02T06:16:22;8.00;98.00
26575;DHT22;67165;50.256;10.978;2023-05-02T06:18:50;8.10;98.00
26575;DHT22;67165;50.256;10.978;2023-05-02T06:21:17;8.10;98.00
26575;DHT22;67165;50.256;10.978;2023-05-02T06:23:42;8.20;98.00
26575;DHT22;67165;50.256;10.978;2023-05-02T06:26:10;8.20;98.00
26575;DHT22;67165;50.256;10.978;2023-05-02T06:28:36;8.20;98.00
26575;DHT22;67165;50.256;10.978;2023-05-02T06:31:05;8.40;98.00
26575;DHT22;67165;50.256;10.978;2023-05-02T06:33:31;8.50;98.00
26575;DHT22;67165;50.256;10.978;2023-05-02T06:35:58;8.50;98.00
26575;DHT22;67165;50.256;10.978;2023-05-02T06:38:26;8.60;98.00
26575;DHT22;67165;50.256;10.978;2023-05-02T06:40:51;8.70;98.00
26575;DHT22;67165;50.256;10.978;2023-05-02T06:43:18;8.80;98.00
26575;DHT22;67165;50.256;10.978;2023-05-02T06:45:44;8.80;98.00
26575;DHT22;67165;50.256;10.978;2023-05-02T06:48:09;8.90;98.00
26575;DHT22;67165;50.256;10.978;2023-05-02T06:50:36;8.90;98.00
26575;DHT22;67165;50.256;10.978;2023-05-02T06:53:03;9.00;98.00
26575;DHT22;67165;50.256;10.978;2023-05-02T06:55:29;9.00;98.00
26575;DHT22;67165;50.256;10.978;2023-05-02T06:57:55;9.10;98.00
26575;DHT22;67165;50.256;10.978;2023-05-02T07:00:21;9.20;98.00
26575;DHT22;67165;50.256;10.978;2023-05-02T07:02:48;9.30;98.00
26575;DHT22;67165;50.256;10.978;2023-05-02T07:05:14;9.40;98.00
26575;DHT22;67165;50.256;10.978;2023-05-02T07:07:43;9.50;98.00
26575;DHT22;67165;50.256;10.978;2023-05-02T07:10:09;9.50;98.00
26575;DHT22;67165;50.256;10.978;2023-05-02T07:12:38;9.70;98.00
26575;DHT22;67165;50.256;10.978;2023-05-02T07:15:07;9.80;98.00
26575;DHT22;67165;50.256;10.978;2023-05-02T07:17:33;9.80;98.00
26575;DHT22;67165;50.256;10.978;2023-05-02T07:19:58;9.90;98.00
26575;DHT22;67165;50.256;10.978;2023-05-02T07:22:24;10.00;98.00
26575;DHT22;67165;50.256;10.978;2023-05-02T07:24:57;10.20;98.00
26575;DHT22;67165;50.256;10.978;2023-05-02T07:27:23;10.30;98.00
26575;DHT22;67165;50.256;10.978;2023-05-02T07:29:49;10.60;98.00
26575;DHT22;67165;50.256;10.978;2023-05-02T07:32:16;10.90;98.00
26575;DHT22;67165;50.256;10.978;2023-05-02T07:34:46;11.30;98.00
26575;DHT22;67165;50.256;10.978;2023-05-02T07:37:12;11.70;98.00
26575;DHT22;67165;50.256;10.978;2023-05-02T07:39:40;12.20;98.00
26575;DHT22;67165;50.256;10.978;2023-05-02T07:42:05;12.50;98.00
26575;DHT22;67165;50.256;10.978;2023-05-02T07:44:34;12.70;98.00
26575;DHT22;67165;50.256;10.978;2023-05-02T07:47:02;12.80;98.00
26575;DHT22;67165;50.256;10.978;2023-05-02T07:49:28;12.80;98.00
26575;DHT22;67165;50.256;10.978;2023-05-02T07:51:57;13.00;98.00
26575;DHT22;67165;50.256;10.978;2023-05-02T07:54:23;13.40;98.00
26575;DHT22;67165;50.256;10.978;2023-05-02T07:56:50;13.60;98.00
26575;DHT22;67165;50.256;10.978;2023-05-02T07:59:16;13.90;98.00
26575;DHT22;67165;50.256;10.978;2023-05-02T08:01:42;14.20;98.00
26575;DHT22;67165;50.256;10.978;2023-05-02T08:04:09;14.50;98.00
26575;DHT22;67165;50.256;10.978;2023-05-02T08:06:36;14.70;98.00
26575;DHT22;67165;50.256;10.978;2023-05-02T08:09:02;15.00;98.00
26575;DHT22;67165;50.256;10.978;2023-05-02T08:11:30;15.10;98.00
26575;DHT22;67165;50.256;10.978;2023-05-02T08:13:56;15.20;98.00
26575;DHT22;67165;50.256;10.978;2023-05-02T08:16:22;15.20;98.00
26575;DHT22;67165;50.256;10.978;2023-05-02T08:18:48;15.30;98.00
26575;DHT22;67165;50.256;10.978;2023-05-02T08:21:18;15.10;98.00
26575;DHT22;67165;50.256;10.978;2023-05-02T08:23:44;15.20;98.00
26575;DHT22;67165;50.256;10.978;2023-05-02T08:26:18;15.20;98.00
26575;DHT22;67165;50.256;10.978;2023-05-02T08:28:46;15.30;98.00
26575;DHT22;67165;50.256;10.978;2023-05-02T08:31:11;15.50;98.00
26575;DHT22;67165;50.256;10.978;2023-05-02T08:33:37;15.50;98.00
26575;DHT22;67165;50.256;10.978;2023-05-02T08:36:13;15.20;98.00
26575;DHT22;67165;50.256;10.978;2023-05-02T08:38:41;15.10;98.00
26575;DHT22;67165;50.256;10.978;2023-05-02T08:41:15;15.00;98.00
26575;DHT22;67165;50.256;10.978;2023-05-02T08:43:44;15.10;98.00
26575;DHT22;67165;50.256;10.978;2023-05-02T08:46:13;15.20;98.00
26575;DHT22;67165;50.256;10.978;2023-05-02T08:48:40;15.40;98.00
26575;DHT22;67165;50.256;10.978;2023-05-02T08:51:11;15.60;98.00
26575;DHT22;67165;50.256;10.978;2023-05-02T08:53:38;15.70;98.00
26575;DHT22;67165;50.256;10.978;2023-05-02T08:56:07;15.90;98.00
26575;DHT22;67165;50.256;10.978;2023-05-02T08:58:35;16.00;98.00
26575;DHT22;67165;50.256;10.978;2023-05-02T09:01:08;16.10;98.00
26575;DHT22;67165;50.256;10.978;2023-05-02T09:03:35;16.20;98.00
26575;DHT22;67165;50.256;10.978;2023-05-02T09:08:33;16.50;98.00
26575;DHT22;67165;50.256;10.978;2023-05-02T09:11:00;16.70;98.00
26575;DHT22;67165;50.256;10.978;2023-05-02T09:13:39;16.40;98.00
26575;DHT22;67165;50.256;10.978;2023-05-02T09:16:07;16.40;98.00
26575;DHT22;67165;50.256;10.978;2023-05-02T09:18:38;16.40;98.00
26575;DHT22;67165;50.256;10.978;2023-05-02T09:21:11;16.30;98.00
26575;DHT22;67165;50.256;10.978;2023-05-02T09:23:37;16.10;98.00
26575;DHT22;67165;50.256;10.978;2023-05-02T09:26:11;16.10;98.00
26575;DHT22;67165;50.256;10.978;2023-05-02T09:28:42;16.20;98.00
26575;DHT22;67165;50.256;10.978;2023-05-02T09:31:12;16.20;98.00
26575;DHT22;67165;50.256;10.978;2023-05-02T09:33:39;16.20;98.00
26575;DHT22;67165;50.256;10.978;2023-05-02T09:36:07;16.20;98.00
26575;DHT22;67165;50.256;10.978;2023-05-02T09:38:33;16.20;98.00
26575;DHT22;67165;50.256;10.978;2023-05-02T09:40:59;16.40;98.00
26575;DHT22;67165;50.256;10.978;2023-05-02T09:43:25;16.60;98.00
26575;DHT22;67165;50.256;10.978;2023-05-02T09:46:02;16.80;98.00
26575;DHT22;67165;50.256;10.978;2023-05-02T09:48:30;16.90;98.00
26575;DHT22;67165;50.256;10.978;2023-05-02T09:50:56;17.10;98.00
26575;DHT22;67165;50.256;10.978;2023-05-02T09:53:26;17.10;98.00
26575;DHT22;67165;50.256;10.978;2023-05-02T09:56:18;17.20;98.00
26575;DHT22;67165;50.256;10.978;2023-05-02T09:58:44;17.30;98.00
26575;DHT22;67165;50.256;10.978;2023-05-02T10:01:17;17.20;98.00
26575;DHT22;67165;50.256;10.978;2023-05-02T10:03:46;17.30;98.00
26575;DHT22;67165;50.256;10.978;2023-05-02T10:06:14;17.30;98.00
26575;DHT22;67165;50.256;10.978;2023-05-02T10:08:41;17.00;98.00
26575;DHT22;67165;50.256;10.978;2023-05-02T10:11:11;16.60;98.00
26575;DHT22;67165;50.256;10.978;2023-05-02T10:13:50;16.40;98.00
26575;DHT22;67165;50.256;10.978;2023-05-02T10:16:22;16.40;98.00
26575;DHT22;67165;50.256;10.978;2023-05-02T10:19:08;16.40;98.00
26575;DHT22;67165;50.256;10.978;2023-05-02T10:21:35;16.50;98.00
26575;DHT22;67165;50.256;10.978;2023-05-02T10:24:02;16.20;98.00
26575;DHT22;67165;50.256;10.978;2023-05-02T10:26:29;16.10;98.00
26575;DHT22;67165;50.256;10.978;2023-05-02T10:28:56;15.90;98.00
26575;DHT22;67165;50.256;10.978;2023-05-02T10:31:21;15.60;98.00
26575;DHT22;67165;50.256;10.978;2023-05-02T10:33:51;15.40;98.00
26575;DHT22;67165;50.256;10.978;2023-05-02T10:36:21;15.30;98.00
26575;DHT22;67165;50.256;10.978;2023-05-02T10:38:47;15.00;98.00
26575;DHT22;67165;50.256;10.978;2023-05-02T10:41:15;14.80;98.00
26575;DHT22;67165;50.256;10.978;2023-05-02T10:43:45;14.40;98.00
26575;DHT22;67165;50.256;10.978;2023-05-02T10:46:31;14.20;98.00
26575;DHT22;67165;50.256;10.978;2023-05-02T10:49:02;13.90;98.00
26575;DHT22;67165;50.256;10.978;2023-05-02T10:51:29;13.80;98.00
26575;DHT22;67165;50.256;10.978;2023-05-02T10:59:35;13.90;98.00
26575;DHT22;67165;50.256;10.978;2023-05-02T11:02:02;14.10;98.00
26575;DHT22;67165;50.256;10.978;2023-05-02T11:07:32;14.30;98.00
26575;DHT22;67165;50.256;10.978;2023-05-02T11:13:02;14.60;98.00
26575;DHT22;67165;50.256;10.978;2023-05-02T11:18:06;15.20;98.00
26575;DHT22;67165;50.256;10.978;2023-05-02T11:20:32;15.40;98.00
26575;DHT22;67165;50.256;10.978;2023-05-02T11:23:19;15.80;98.00
26575;DHT22;67165;50.256;10.978;2023-05-02T11:25:55;16.20;98.00
26575;DHT22;67165;50.256;10.978;2023-05-02T11:28:50;16.20;98.00
26575;DHT22;67165;50.256;10.978;2023-05-02T11:34:02;16.30;98.00
26575;DHT22;67165;50.256;10.978;2023-05-02T11:36:33;16.40;98.00
26575;DHT22;67165;50.256;10.978;2023-05-02T11:39:03;16.20;98.00
26575;DHT22;67165;50.256;10.978;2023-05-02T11:41:42;16.00;98.00
26575;DHT22;67165;50.256;10.978;2023-05-02T11:44:08;15.80;98.00
26575;DHT22;67165;50.256;10.978;2023-05-02T11:46:38;15.30;98.00
26575;DHT22;67165;50.256;10.978;2023-05-02T11:49:04;15.00;98.00
26575;DHT22;67165;50.256;10.978;2023-05-02T11:51:30;14.70;98.00
26575;DHT22;67165;50.256;10.978;2023-05-02T11:53:56;14.50;98.00
26575;DHT22;67165;50.256;10.978;2023-05-02T11:56:23;14.50;98.00
26575;DHT22;67165;50.256;10.978;2023-05-02T11:59:00;14.50;98.00
26575;DHT22;67165;50.256;10.978;2023-05-02T12:01:26;14.50;98.00
26575;DHT22;67165;50.256;10.978;2023-05-02T12:04:05;14.50;98.00
26575;DHT22;67165;50.256;10.978;2023-05-02T12:06:32;14.60;98.00
26575;DHT22;67165;50.256;10.978;2023-05-02T12:09:06;14.70;98.00
26575;DHT22;67165;50.256;10.978;2023-05-02T12:11:32;15.00;98.00
26575;DHT22;67165;50.256;10.978;2023-05-02T12:13:58;15.10;98.00
26575;DHT22;67165;50.256;10.978;2023-05-02T12:16:24;15.20;98.00
26575;DHT22;67165;50.256;10.978;2023-05-02T12:18:50;15.20;98.00
26575;DHT22;67165;50.256;10.978;2023-05-02T12:21:16;15.00;98.00
26575;DHT22;67165;50.256;10.978;2023-05-02T12:23:42;15.00;98.00
26575;DHT22;67165;50.256;10.978;2023-05-02T12:26:21;15.30;98.00
26575;DHT22;67165;50.256;10.978;2023-05-02T12:28:53;15.60;98.00
26575;DHT22;67165;50.256;10.978;2023-05-02T12:31:19;16.10;98.00
26575;DHT22;67165;50.256;10.978;2023-05-02T12:33:46;16.30;98.00
26575;DHT22;67165;50.256;10.978;2023-05-02T12:36:13;16.10;98.00
26575;DHT22;67165;50.256;10.978;2023-05-02T12:38:38;15.90;98.00
26575;DHT22;67165;50.256;10.978;2023-05-02T12:41:04;15.80;98.00
26575;DHT22;67165;50.256;10.978;2023-05-02T12:43:47;15.80;98.00
26575;DHT22;67165;50.256;10.978;2023-05-02T12:46:13;15.70;98.00
26575;DHT22;67165;50.256;10.978;2023-05-02T12:48:40;15.90;98.00
26575;DHT22;67165;50.256;10.978;2023-05-02T12:51:15;16.00;98.00
26575;DHT22;67165;50.256;10.978;2023-05-02T12:53:44;16.20;98.00
26575;DHT22;67165;50.256;10.978;2023-05-02T12:56:12;16.40;98.00
26575;DHT22;67165;50.256;10.978;2023-05-02T12:58:43;16.60;98.00
26575;DHT22;67165;50.256;10.978;2023-05-02T13:01:10;16.70;98.00
26575;DHT22;67165;50.256;10.978;2023-05-02T13:03:36;16.70;98.00
26575;DHT22;67165;50.256;10.978;2023-05-02T13:06:02;16.70;98.00
26575;DHT22;67165;50.256;10.978;2023-05-02T13:08:28;16.70;98.00
26575;DHT22;67165;50.256;10.978;2023-05-02T13:10:54;16.60;98.00
26575;DHT22;67165;50.256;10.978;2023-05-02T13:13:19;16.60;98.00
26575;DHT22;67165;50.256;10.978;2023-05-02T13:15:46;16.40;98.00
26575;DHT22;67165;50.256;10.978;2023-05-02T13:18:11;16.20;98.00
26575;DHT22;67165;50.256;10.978;2023-05-02T13:20:37;16.20;98.00
26575;DHT22;67165;50.256;10.978;2023-05-02T13:23:03;16.30;98.00
26575;DHT22;67165;50.256;10.978;2023-05-02T13:25:29;16.30;98.00
26575;DHT22;67165;50.256;10.978;2023-05-02T13:27:55;16.10;98.00
26575;DHT22;67165;50.256;10.978;2023-05-02T13:30:20;16.20;98.00
26575;DHT22;67165;50.256;10.978;2023-05-02T13:32:46;16.00;98.00
26575;DHT22;67165;50.256;10.978;2023-05-02T13:35:12;16.00;98.00
26575;DHT22;67165;50.256;10.978;2023-05-02T13:37:40;15.70;98.00
26575;DHT22;67165;50.256;10.978;2023-05-02T13:40:06;15.70;98.00
26575;DHT22;67165;50.256;10.978;2023-05-02T13:42:32;15.90;98.00
26575;DHT22;67165;50.256;10.978;2023-05-02T13:44:58;16.00;98.00
26575;DHT22;67165;50.256;10.978;2023-05-02T13:47:24;16.10;98.00
26575;DHT22;67165;50.256;10.978;2023-05-02T13:49:50;16.20;98.00
26575;DHT22;67165;50.256;10.978;2023-05-02T13:52:16;16.50;98.00
26575;DHT22;67165;50.256;10.978;2023-05-02T13:54:42;16.70;98.00
26575;DHT22;67165;50.256;10.978;2023-05-02T13:57:07;16.80;98.00
26575;DHT22;67165;50.256;10.978;2023-05-02T13:59:33;17.00;98.00
26575;DHT22;67165;50.256;10.978;2023-05-02T14:01:59;17.10;98.00
26575;DHT22;67165;50.256;10.978;2023-05-02T14:04:24;17.20;98.00
26575;DHT22;67165;50.256;10.978;2023-05-02T14:06:50;17.20;98.00
26575;DHT22;67165;50.256;10.978;2023-05-02T14:09:16;17.10;98.00
26575;DHT22;67165;50.256;10.978;2023-05-02T14:11:41;17.00;98.00
26575;DHT22;67165;50.256;10.978;2023-05-02T14:14:09;17.00;98.00
26575;DHT22;67165;50.256;10.978;2023-05-02T14:16:37;16.90;98.00
26575;DHT22;67165;50.256;10.978;2023-05-02T14:19:02;16.90;98.00
26575;DHT22;67165;50.256;10.978;2023-05-02T14:21:28;16.90;98.00
26575;DHT22;67165;50.256;10.978;2023-05-02T14:23:54;16.90;98.00
26575;DHT22;67165;50.256;10.978;2023-05-02T14:26:19;16.80;98.00
26575;DHT22;67165;50.256;10.978;2023-05-02T14:28:45;16.60;98.00
26575;DHT22;67165;50.256;10.978;2023-05-02T14:31:11;16.40;98.00
26575;DHT22;67165;50.256;10.978;2023-05-02T14:33:37;16.10;98.00
26575;DHT22;67165;50.256;10.978;2023-05-02T14:36:03;15.70;98.00
26575;DHT22;67165;50.256;10.978;2023-05-02T14:38:28;15.40;98.00
26575;DHT22;67165;50.256;10.978;2023-05-02T14:40:54;15.30;98.00
26575;DHT22;67165;50.256;10.978;2023-05-02T14:43:20;15.20;98.00
26575;DHT22;67165;50.256;10.978;2023-05-02T14:45:46;15.20;98.00
26575;DHT22;67165;50.256;10.978;2023-05-02T14:48:11;15.10;98.00
26575;DHT22;67165;50.256;10.978;2023-05-02T14:50:39;14.90;98.00
26575;DHT22;67165;50.256;10.978;2023-05-02T14:53:05;14.70;98.00
26575;DHT22;67165;50.256;10.978;2023-05-02T14:55:38;14.50;98.00
26575;DHT22;67165;50.256;10.978;2023-05-02T14:58:07;14.30;98.00
26575;DHT22;67165;50.256;10.978;2023-05-02T15:00:35;13.90;98.00
26575;DHT22;67165;50.256;10.978;2023-05-02T15:03:04;13.80;98.00
26575;DHT22;67165;50.256;10.978;2023-05-02T15:05:30;13.70;98.00
26575;DHT22;67165;50.256;10.978;2023-05-02T15:07:55;13.60;98.00
26575;DHT22;67165;50.256;10.978;2023-05-02T15:10:21;13.50;98.00
26575;DHT22;67165;50.256;10.978;2023-05-02T15:12:47;13.60;98.00
26575;DHT22;67165;50.256;10.978;2023-05-02T15:15:16;13.80;98.00
26575;DHT22;67165;50.256;10.978;2023-05-02T15:17:42;13.80;98.00
26575;DHT22;67165;50.256;10.978;2023-05-02T15:20:08;13.80;98.00
26575;DHT22;67165;50.256;10.978;2023-05-02T15:22:34;13.80;98.00
26575;DHT22;67165;50.256;10.978;2023-05-02T15:24:59;13.90;98.00
26575;DHT22;67165;50.256;10.978;2023-05-02T15:27:25;13.90;98.00
26575;DHT22;67165;50.256;10.978;2023-05-02T15:29:51;14.10;98.00
26575;DHT22;67165;50.256;10.978;2023-05-02T15:32:17;14.30;98.00
26575;DHT22;67165;50.256;10.978;2023-05-02T15:34:42;14.50;98.00
26575;DHT22;67165;50.256;10.978;2023-05-02T15:37:09;14.70;98.00
26575;DHT22;67165;50.256;10.978;2023-05-02T15:39:34;14.90;98.00
26575;DHT22;67165;50.256;10.978;2023-05-02T15:42:03;15.20;98.00
26575;DHT22;67165;50.256;10.978;2023-05-02T15:44:32;15.60;98.00
26575;DHT22;67165;50.256;10.978;2023-05-02T15:46:58;15.60;98.00
26575;DHT22;67165;50.256;10.978;2023-05-02T15:49:24;15.50;98.00
26575;DHT22;67165;50.256;10.978;2023-05-02T15:51:55;15.50;98.00
26575;DHT22;67165;50.256;10.978;2023-05-02T15:54:21;15.40;98.00
26575;DHT22;67165;50.256;10.978;2023-05-02T15:56:47;15.50;98.00
26575;DHT22;67165;50.256;10.978;2023-05-02T15:59:13;15.70;98.00
26575;DHT22;67165;50.256;10.978;2023-05-02T16:01:38;15.50;98.00
26575;DHT22;67165;50.256;10.978;2023-05-02T16:04:04;15.50;98.00